createdAt,value
2022-10-17T00:01:45.503Z,13.36
2022-10-17T00:04:12.017Z,13.30
2022-10-17T00:06:39.815Z,13.30
2022-10-17T00:09:06.158Z,13.19
2022-10-17T00:11:32.680Z,13.21
2022-10-17T00:13:59.068Z,13.25
2022-10-17T00:16:30.154Z,13.28
2022-10-17T00:18:56.977Z,13.26
2022-10-17T00:21:23.989Z,13.19
2022-10-17T00:23:50.487Z,13.12
2022-10-17T00:26:16.975Z,13.15
2022-10-17T00:28:46.144Z,13.09
2022-10-17T00:31:12.513Z,13.03
2022-10-17T00:33:39.297Z,13.05
2022-10-17T00:36:12.690Z,12.98
2022-10-17T00:38:39.881Z,12.89
2022-10-17T00:41:06.495Z,12.89
2022-10-17T00:43:51.678Z,12.87
2022-10-17T00:46:18.173Z,12.80
2022-10-17T00:48:45.325Z,12.86
2022-10-17T00:51:11.831Z,12.83
2022-10-17T00:53:39.396Z,12.73
2022-10-17T00:56:06.005Z,12.77
2022-10-17T00:58:32.426Z,12.71
2022-10-17T01:00:58.807Z,12.66
2022-10-17T01:03:25.180Z,12.55
2022-10-17T01:05:51.717Z,12.58
2022-10-17T01:08:18.106Z,12.56
2022-10-17T01:11:03.106Z,12.61
2022-10-17T01:13:44.984Z,12.58
2022-10-17T01:16:19.056Z,12.55
2022-10-17T01:19:05.649Z,12.60
2022-10-17T01:21:32.150Z,12.62
2022-10-17T01:24:29.855Z,12.62
2022-10-17T01:27:19.608Z,12.56
2022-10-17T01:30:04.897Z,12.50
2022-10-17T01:32:49.679Z,12.48
2022-10-17T01:35:21.969Z,12.52
2022-10-17T01:40:22.049Z,12.52
2022-10-17T01:42:59.879Z,12.51
2022-10-17T01:46:02.739Z,12.29
2022-10-17T01:48:35.600Z,12.27
2022-10-17T01:51:06.752Z,12.42
2022-10-17T01:53:56.355Z,12.12
2022-10-17T01:56:25.106Z,12.25
2022-10-17T01:58:55.423Z,12.26
2022-10-17T02:01:22.117Z,12.26
2022-10-17T02:03:49.544Z,12.21
2022-10-17T02:06:15.888Z,12.15
2022-10-17T02:08:46.679Z,12.16
2022-10-17T02:11:13.064Z,12.10
2022-10-17T02:13:48.361Z,12.04
2022-10-17T02:16:32.839Z,12.02
2022-10-17T02:19:28.446Z,11.92
2022-10-17T02:22:24.045Z,11.97
2022-10-17T02:24:54.807Z,11.86
2022-10-17T02:27:32.446Z,11.93
2022-10-17T02:30:23.627Z,11.95
2022-10-17T02:32:53.470Z,11.85
2022-10-17T02:35:20.874Z,11.74
2022-10-17T02:37:47.556Z,11.75
2022-10-17T02:40:15.420Z,11.68
2022-10-17T02:42:44.114Z,11.64
2022-10-17T02:45:11.193Z,11.70
2022-10-17T02:47:58.783Z,11.76
2022-10-17T02:50:32.228Z,11.68
2022-10-17T02:53:01.191Z,11.57
2022-10-17T02:55:36.415Z,11.55
2022-10-17T02:58:06.648Z,11.55
2022-10-17T03:00:34.940Z,11.51
2022-10-17T03:03:01.280Z,11.51
2022-10-17T03:05:28.825Z,11.51
2022-10-17T03:07:55.793Z,11.49
2022-10-17T03:10:22.643Z,11.55
2022-10-17T03:12:49.055Z,11.50
2022-10-17T03:15:15.421Z,11.41
2022-10-17T03:17:41.861Z,11.47
2022-10-17T03:20:08.365Z,11.42
2022-10-17T03:22:34.692Z,11.30
2022-10-17T03:25:01.029Z,11.34
2022-10-17T03:27:27.677Z,11.39
2022-10-17T03:29:54.261Z,11.40
2022-10-17T03:32:20.620Z,11.44
2022-10-17T03:34:47.129Z,11.46
2022-10-17T03:37:13.501Z,11.43
2022-10-17T03:39:39.900Z,11.33
2022-10-17T03:42:06.204Z,11.42
2022-10-17T03:44:32.516Z,11.43
2022-10-17T03:46:58.910Z,11.38
2022-10-17T03:49:25.254Z,11.39
2022-10-17T03:51:51.656Z,11.31
2022-10-17T03:54:18.079Z,11.41
2022-10-17T03:56:44.594Z,11.39
2022-10-17T03:59:14.578Z,11.41
2022-10-17T04:01:41.434Z,11.28
2022-10-17T04:04:08.462Z,11.30
2022-10-17T04:06:34.924Z,11.16
2022-10-17T04:09:01.671Z,11.29
2022-10-17T04:11:28.371Z,11.27
2022-10-17T04:13:55.559Z,11.26
2022-10-17T04:16:22.457Z,11.28
2022-10-17T04:18:52.671Z,11.39
2022-10-17T04:21:19.334Z,11.34
2022-10-17T04:23:45.660Z,11.40
2022-10-17T04:26:11.972Z,11.37
2022-10-17T04:28:40.867Z,11.41
2022-10-17T04:31:08.352Z,11.19
2022-10-17T04:33:35.028Z,11.27
2022-10-17T04:36:05.705Z,11.22
2022-10-17T04:38:33.530Z,11.17
2022-10-17T04:41:03.170Z,10.96
2022-10-17T04:43:33.469Z,11.05
2022-10-17T04:46:00.454Z,11.08
2022-10-17T04:48:27.827Z,11.19
2022-10-17T04:51:01.545Z,10.98
2022-10-17T04:53:28.625Z,10.82
2022-10-17T04:55:54.992Z,10.89
2022-10-17T04:58:21.575Z,10.99
2022-10-17T05:00:47.997Z,11.06
2022-10-17T05:03:14.562Z,11.12
2022-10-17T05:05:41.675Z,10.99
2022-10-17T05:08:09.330Z,11.08
2022-10-17T05:10:36.689Z,10.93
2022-10-17T05:13:03.228Z,10.99
2022-10-17T05:15:29.632Z,10.93
2022-10-17T05:17:56.474Z,10.97
2022-10-17T05:20:23.274Z,11.01
2022-10-17T05:22:49.813Z,10.89
2022-10-17T05:25:16.153Z,10.97
2022-10-17T05:27:42.634Z,10.96
2022-10-17T05:30:09.209Z,10.99
2022-10-17T05:32:35.687Z,11.02
2022-10-17T05:35:03.828Z,10.92
2022-10-17T05:37:30.933Z,10.94
2022-10-17T05:39:57.544Z,10.96
2022-10-17T05:42:24.119Z,10.71
2022-10-17T05:44:50.519Z,10.76
2022-10-17T05:47:17.056Z,10.88
2022-10-17T05:49:48.650Z,10.96
2022-10-17T05:52:18.527Z,10.92
2022-10-17T05:54:44.872Z,10.91
2022-10-17T05:57:11.488Z,10.88
2022-10-17T05:59:37.803Z,10.93
2022-10-17T06:02:04.270Z,10.82
2022-10-17T06:04:30.633Z,10.93
2022-10-17T06:06:56.952Z,11.03
2022-10-17T06:09:23.775Z,11.00
2022-10-17T06:11:50.116Z,10.91
2022-10-17T06:14:16.553Z,11.02
2022-10-17T06:16:43.616Z,11.20
2022-10-17T06:19:11.785Z,11.27
2022-10-17T06:21:38.883Z,11.31
2022-10-17T06:24:05.404Z,11.38
2022-10-17T06:26:31.734Z,11.48
2022-10-17T06:28:58.147Z,11.48
2022-10-17T06:31:24.589Z,11.51
2022-10-17T06:33:51.018Z,11.39
2022-10-17T06:36:17.384Z,11.33
2022-10-17T06:38:43.891Z,11.34
2022-10-17T06:41:13.692Z,11.59
2022-10-17T06:43:40.739Z,11.83
2022-10-17T06:46:07.187Z,11.90
2022-10-17T06:48:33.800Z,11.81
2022-10-17T06:51:00.833Z,12.04
2022-10-17T06:53:28.571Z,12.19
2022-10-17T06:55:55.409Z,12.46
2022-10-17T06:58:22.716Z,12.65
2022-10-17T07:00:49.168Z,12.84
2022-10-17T07:03:15.622Z,12.95
2022-10-17T07:05:41.974Z,13.55
2022-10-17T07:08:08.792Z,13.96
2022-10-17T07:10:38.462Z,14.74
2022-10-17T07:13:04.793Z,15.25
2022-10-17T07:15:32.382Z,15.82
2022-10-17T07:17:58.735Z,15.94
2022-10-17T07:20:25.205Z,16.26
2022-10-17T07:22:51.617Z,16.96
2022-10-17T07:25:17.993Z,17.45
2022-10-17T07:27:44.322Z,17.73
2022-10-17T07:30:10.966Z,17.79
2022-10-17T07:32:37.345Z,17.88
2022-10-17T07:35:03.827Z,17.95
2022-10-17T07:37:30.593Z,17.87
2022-10-17T07:39:57.198Z,18.17
2022-10-17T07:42:23.980Z,18.47
2022-10-17T07:44:51.090Z,18.62
2022-10-17T07:47:17.479Z,18.85
2022-10-17T07:49:45.315Z,18.91
2022-10-17T07:52:12.348Z,18.95
2022-10-17T07:54:38.785Z,19.20
2022-10-17T07:57:05.510Z,19.11
2022-10-17T07:59:33.237Z,19.01
2022-10-17T08:02:00.735Z,19.32
2022-10-17T08:04:27.159Z,19.35
2022-10-17T08:06:56.656Z,19.34
2022-10-17T08:09:37.676Z,19.66
2022-10-17T08:12:04.095Z,19.84
2022-10-17T08:14:30.446Z,20.35
2022-10-17T08:16:56.783Z,20.64
2022-10-17T08:19:23.132Z,20.67
2022-10-17T08:21:50.104Z,20.66
2022-10-17T08:24:16.453Z,20.78
2022-10-17T08:26:44.614Z,21.12
2022-10-17T08:29:16.292Z,20.96
2022-10-17T08:31:46.552Z,20.71
2022-10-17T08:34:15.875Z,21.24
2022-10-17T08:36:42.264Z,21.49
2022-10-17T08:39:08.665Z,21.43
2022-10-17T08:41:38.015Z,21.85
2022-10-17T08:44:16.728Z,21.75
2022-10-17T08:46:45.359Z,22.13
2022-10-17T08:49:15.168Z,22.19
2022-10-17T08:51:47.887Z,22.05
2022-10-17T08:54:20.474Z,22.26
2022-10-17T08:56:49.778Z,22.55
2022-10-17T08:59:36.489Z,22.74
2022-10-17T09:02:09.017Z,22.86
2022-10-17T09:04:38.114Z,23.21
2022-10-17T09:07:04.804Z,23.00
2022-10-17T09:09:49.249Z,23.13
2022-10-17T09:12:15.948Z,23.27
2022-10-17T09:14:51.108Z,23.41
2022-10-17T09:17:37.758Z,23.50
2022-10-17T09:20:04.347Z,23.75
2022-10-17T09:22:34.794Z,23.83
2022-10-17T09:25:03.808Z,23.91
2022-10-17T09:27:44.566Z,23.85
2022-10-17T09:30:47.204Z,23.83
2022-10-17T09:33:28.279Z,24.43
2022-10-17T09:36:02.453Z,24.19
2022-10-17T09:38:34.597Z,24.24
2022-10-17T09:41:02.109Z,24.37
2022-10-17T09:43:28.643Z,24.55
2022-10-17T09:45:55.089Z,24.19
2022-10-17T09:48:43.271Z,24.82
2022-10-17T09:51:21.830Z,24.69
2022-10-17T09:53:55.754Z,24.64
2022-10-17T09:56:22.507Z,25.01
2022-10-17T09:58:53.449Z,24.82
2022-10-17T10:01:22.969Z,24.89
2022-10-17T10:04:10.933Z,24.50
2022-10-17T10:06:37.471Z,24.99
2022-10-17T10:09:05.570Z,24.82
2022-10-17T10:11:44.139Z,24.54
2022-10-17T10:14:20.184Z,24.27
2022-10-17T10:16:47.270Z,24.58
2022-10-17T10:19:21.425Z,24.75
2022-10-17T10:21:55.272Z,24.81
2022-10-17T10:24:21.825Z,25.05
2022-10-17T10:26:48.792Z,24.65
2022-10-17T10:29:24.353Z,24.21
2022-10-17T10:31:51.548Z,24.49
2022-10-17T10:34:17.848Z,24.78
2022-10-17T10:36:45.651Z,24.21
2022-10-17T10:39:27.141Z,24.18
2022-10-17T10:41:53.617Z,24.34
2022-10-17T10:44:22.963Z,24.26
2022-10-17T10:47:05.428Z,24.46
2022-10-17T10:49:32.452Z,24.80
2022-10-17T10:52:00.463Z,24.46
2022-10-17T10:54:33.935Z,24.29
2022-10-17T10:57:03.382Z,24.62
2022-10-17T10:59:36.019Z,24.65
2022-10-17T11:02:10.016Z,24.54
2022-10-17T11:04:40.777Z,24.35
2022-10-17T11:07:22.482Z,24.30
2022-10-17T11:10:07.336Z,24.23
2022-10-17T11:12:39.400Z,24.08
2022-10-17T11:15:08.852Z,24.02
2022-10-17T11:17:47.386Z,24.18
2022-10-17T11:20:28.719Z,24.44
2022-10-17T11:23:01.671Z,24.66
2022-10-17T11:25:32.869Z,24.20
2022-10-17T11:28:03.795Z,24.04
2022-10-17T11:30:39.934Z,24.18
2022-10-17T11:33:07.485Z,24.35
2022-10-17T11:35:38.733Z,24.40
2022-10-17T11:38:17.678Z,24.32
2022-10-17T11:40:45.508Z,23.98
2022-10-17T11:43:25.630Z,24.28
2022-10-17T11:46:15.268Z,24.02
2022-10-17T11:48:45.251Z,24.20
2022-10-17T11:54:04.397Z,24.14
2022-10-17T11:56:50.988Z,23.55
2022-10-17T11:59:35.847Z,23.92
2022-10-17T12:02:04.951Z,23.97
2022-10-17T12:04:31.401Z,23.81
2022-10-17T12:07:16.611Z,23.83
2022-10-17T12:09:46.163Z,23.82
2022-10-17T12:12:23.717Z,23.84
2022-10-17T12:14:50.081Z,23.95
2022-10-17T12:17:28.807Z,24.06
2022-10-17T12:20:15.199Z,23.89
2022-10-17T12:22:47.038Z,23.81
2022-10-17T12:25:33.814Z,23.80
2022-10-17T12:28:06.269Z,23.85
2022-10-17T12:30:32.917Z,23.78
2022-10-17T12:33:06.531Z,23.52
2022-10-17T12:35:35.406Z,23.67
2022-10-17T12:38:03.668Z,23.74
2022-10-17T12:40:35.824Z,23.55
2022-10-17T12:43:15.021Z,23.56
2022-10-17T12:45:53.693Z,23.66
2022-10-17T12:48:43.298Z,23.90
2022-10-17T12:51:34.192Z,23.45
2022-10-17T12:53:58.670Z,23.56
2022-10-17T12:56:36.428Z,23.29
2022-10-17T12:59:07.979Z,23.24
2022-10-17T13:01:36.761Z,23.28
2022-10-17T13:04:05.903Z,23.30
2022-10-17T13:06:39.922Z,23.30
2022-10-17T13:09:10.213Z,23.58
2022-10-17T13:11:37.860Z,23.82
2022-10-17T13:14:10.527Z,23.67
2022-10-17T13:16:38.271Z,23.62
2022-10-17T13:19:12.479Z,23.73
2022-10-17T13:21:38.818Z,23.50
2022-10-17T13:24:29.753Z,23.57
2022-10-17T13:26:56.295Z,23.44
2022-10-17T13:29:25.588Z,23.46
2022-10-17T13:31:54.402Z,23.67
2022-10-17T13:34:22.541Z,23.58
2022-10-17T13:36:54.600Z,23.55
2022-10-17T13:39:38.419Z,23.46
2022-10-17T13:42:30.014Z,23.43
2022-10-17T13:44:57.810Z,23.39
2022-10-17T13:47:36.636Z,23.58
2022-10-17T13:50:09.455Z,23.25
2022-10-17T13:52:43.156Z,23.31
2022-10-17T13:55:17.476Z,23.39
2022-10-17T13:57:44.093Z,23.34
2022-10-17T14:00:16.602Z,23.14
2022-10-17T14:02:43.116Z,23.25
2022-10-17T14:05:18.552Z,23.06
2022-10-17T14:08:21.853Z,23.06
2022-10-17T14:10:49.734Z,23.38
2022-10-17T14:13:21.269Z,23.29
2022-10-17T14:15:47.683Z,22.98
2022-10-17T14:18:16.939Z,23.10
2022-10-17T14:21:31.788Z,23.11
2022-10-17T14:23:36.697Z,23.31
2022-10-17T14:26:08.991Z,23.19
2022-10-17T14:28:35.662Z,23.13
2022-10-17T14:31:31.431Z,23.01
2022-10-17T14:33:57.920Z,23.02
2022-10-17T14:36:32.211Z,23.10
2022-10-17T14:38:58.778Z,23.18
2022-10-17T14:41:43.557Z,23.17
2022-10-17T14:44:17.704Z,22.70
2022-10-17T14:46:49.568Z,22.67
2022-10-17T14:49:23.261Z,22.59
2022-10-17T14:52:11.427Z,22.52
2022-10-17T14:54:40.021Z,22.51
2022-10-17T14:57:15.711Z,22.33
2022-10-17T14:59:53.721Z,22.43
2022-10-17T15:02:21.221Z,22.40
2022-10-17T15:04:48.605Z,22.19
2022-10-17T15:07:15.881Z,22.19
2022-10-17T15:09:42.921Z,22.12
2022-10-17T15:12:18.470Z,22.08
2022-10-17T15:14:45.330Z,21.97
2022-10-17T15:17:14.096Z,21.88
2022-10-17T15:19:40.707Z,21.79
2022-10-17T15:22:07.031Z,21.82
2022-10-17T15:24:33.353Z,21.74
2022-10-17T15:26:59.738Z,21.56
2022-10-17T15:29:26.090Z,21.54
2022-10-17T15:31:52.420Z,21.55
2022-10-17T15:34:19.774Z,21.49
2022-10-17T15:36:50.537Z,21.28
2022-10-17T15:39:16.968Z,21.15
2022-10-17T15:41:44.020Z,20.94
2022-10-17T15:44:10.504Z,20.98
2022-10-17T15:46:39.428Z,20.94
2022-10-17T15:49:09.948Z,20.84
2022-10-17T15:51:36.274Z,20.81
2022-10-17T15:54:02.813Z,20.68
2022-10-17T15:56:31.088Z,20.52
2022-10-17T15:58:58.673Z,20.28
2022-10-17T16:01:27.005Z,20.17
2022-10-17T16:03:53.861Z,20.07
2022-10-17T16:06:21.357Z,19.94
2022-10-17T16:08:48.002Z,19.91
2022-10-17T16:11:17.979Z,19.71
2022-10-17T16:13:48.276Z,19.50
2022-10-17T16:16:15.667Z,19.43
2022-10-17T16:18:43.072Z,19.29
2022-10-17T16:21:12.507Z,19.18
2022-10-17T16:23:39.969Z,19.05
2022-10-17T16:26:07.179Z,18.91
2022-10-17T16:28:33.805Z,18.85
2022-10-17T16:31:00.158Z,18.77
2022-10-17T16:33:26.533Z,18.79
2022-10-17T16:35:53.224Z,18.67
2022-10-17T16:38:19.546Z,18.58
2022-10-17T16:40:45.895Z,18.57
2022-10-17T16:43:12.711Z,18.33
2022-10-17T16:45:39.372Z,18.41
2022-10-17T16:48:06.100Z,18.30
2022-10-17T16:50:35.556Z,18.21
2022-10-17T16:53:03.904Z,18.21
2022-10-17T16:55:30.229Z,18.17
2022-10-17T16:57:56.861Z,18.14
2022-10-17T17:00:23.259Z,17.84
2022-10-17T17:02:49.725Z,17.91
2022-10-17T17:05:16.167Z,17.87
2022-10-17T17:07:42.595Z,17.87
2022-10-17T17:10:09.295Z,17.87
2022-10-17T17:12:36.193Z,17.90
2022-10-17T17:15:03.510Z,17.78
2022-10-17T17:17:36.889Z,17.64
2022-10-17T17:20:11.262Z,17.57
2022-10-17T17:22:37.968Z,17.56
2022-10-17T17:25:04.495Z,17.57
2022-10-17T17:27:31.018Z,17.48
2022-10-17T17:29:57.545Z,17.52
2022-10-17T17:32:23.878Z,17.47
2022-10-17T17:34:50.233Z,17.38
2022-10-17T17:37:16.614Z,17.34
2022-10-17T17:39:43.022Z,17.29
2022-10-17T17:42:09.337Z,17.34
2022-10-17T17:44:35.666Z,16.85
2022-10-17T17:47:03.143Z,17.06
2022-10-17T17:49:29.782Z,16.73
2022-10-17T17:51:56.443Z,16.91
2022-10-17T17:54:23.873Z,16.98
2022-10-17T17:56:52.216Z,16.71
2022-10-17T17:59:18.649Z,16.78
2022-10-17T18:01:45.134Z,16.66
2022-10-17T18:04:11.564Z,16.83
2022-10-17T18:06:38.705Z,16.66
2022-10-17T18:09:05.833Z,16.46
2022-10-17T18:11:33.712Z,16.59
2022-10-17T18:14:01.397Z,16.44
2022-10-17T18:16:28.392Z,16.26
2022-10-17T18:18:54.958Z,16.22
2022-10-17T18:21:21.424Z,16.17
2022-10-17T18:23:48.455Z,16.25
2022-10-17T18:26:15.519Z,16.11
2022-10-17T18:31:22.172Z,16.08
2022-10-17T18:33:50.773Z,15.99
2022-10-17T18:36:17.089Z,16.05
2022-10-17T18:38:43.575Z,16.05
2022-10-17T18:41:11.653Z,15.87
2022-10-17T18:43:39.152Z,15.99
2022-10-17T18:46:10.858Z,16.00
2022-10-17T18:48:41.038Z,15.94
2022-10-17T18:51:07.874Z,15.84
2022-10-17T18:53:34.790Z,15.59
2022-10-17T18:56:03.529Z,15.69
2022-10-17T18:58:30.020Z,15.65
2022-10-17T19:01:01.557Z,15.65
2022-10-17T19:03:27.889Z,15.65
2022-10-17T19:05:59.060Z,15.67
2022-10-17T19:08:27.539Z,15.60
2022-10-17T19:10:58.109Z,15.51
2022-10-17T19:13:24.493Z,15.54
2022-10-17T19:15:50.801Z,15.49
2022-10-17T19:18:17.255Z,15.38
2022-10-17T19:20:43.595Z,15.20
2022-10-17T19:23:10.097Z,15.30
2022-10-17T19:25:36.441Z,15.33
2022-10-17T19:28:02.812Z,15.03
2022-10-17T19:30:29.234Z,15.17
2022-10-17T19:32:55.713Z,15.08
2022-10-17T19:35:22.085Z,15.16
2022-10-17T19:37:49.443Z,14.96
2022-10-17T19:40:15.853Z,14.95
2022-10-17T19:42:42.183Z,15.03
2022-10-17T19:45:08.973Z,14.88
2022-10-17T19:47:35.387Z,14.94
2022-10-17T19:50:01.772Z,15.02
2022-10-17T19:52:28.526Z,15.14
2022-10-17T19:54:56.078Z,15.09
2022-10-17T19:57:22.421Z,15.02
2022-10-17T19:59:51.327Z,14.91
2022-10-17T20:02:20.047Z,14.83
2022-10-17T20:04:54.582Z,14.68
2022-10-17T20:07:32.989Z,14.59
2022-10-17T20:09:59.336Z,14.67
2022-10-17T20:12:25.684Z,14.65
2022-10-17T20:14:52.035Z,14.47
2022-10-17T20:17:18.395Z,14.56
2022-10-17T20:19:44.817Z,14.63
2022-10-17T20:22:11.320Z,14.46
2022-10-17T20:24:37.824Z,14.40
2022-10-17T20:27:04.263Z,14.37
2022-10-17T20:29:30.655Z,14.42
2022-10-17T20:31:57.677Z,14.20
2022-10-17T20:34:24.239Z,14.28
2022-10-17T20:36:51.877Z,14.23
2022-10-17T20:39:19.093Z,14.26
2022-10-17T20:41:48.705Z,14.06
2022-10-17T20:44:15.377Z,13.93
2022-10-17T20:46:48.828Z,14.13
2022-10-17T20:49:26.876Z,14.03
2022-10-17T20:51:53.396Z,14.15
2022-10-17T20:54:21.858Z,14.03
2022-10-17T20:56:48.233Z,14.01
2022-10-17T20:59:16.254Z,14.04
2022-10-17T21:01:43.164Z,13.87
2022-10-17T21:04:44.215Z,14.02
2022-10-17T21:06:56.152Z,14.00
2022-10-17T21:09:22.649Z,14.07
2022-10-17T21:11:51.431Z,14.05
2022-10-17T21:14:18.284Z,13.94
2022-10-17T21:16:44.875Z,13.84
2022-10-17T21:19:12.205Z,13.79
2022-10-17T21:21:40.322Z,13.89
2022-10-17T21:24:12.434Z,13.90
2022-10-17T21:26:39.209Z,13.81
2022-10-17T21:29:06.052Z,13.78
2022-10-17T21:31:42.726Z,13.63
2022-10-17T21:34:17.598Z,13.54
2022-10-17T21:36:44.411Z,13.49
2022-10-17T21:39:11.674Z,13.53
2022-10-17T21:41:38.346Z,13.32
2022-10-17T21:44:06.489Z,13.21
2022-10-17T21:46:33.697Z,13.45
2022-10-17T21:49:00.490Z,13.49
2022-10-17T21:51:27.396Z,13.34
2022-10-17T21:53:54.468Z,13.50
2022-10-17T21:56:23.816Z,13.53
2022-10-17T21:58:50.878Z,13.29
2022-10-17T22:01:18.694Z,13.26
2022-10-17T22:03:46.969Z,13.45
2022-10-17T22:06:39.278Z,13.41
2022-10-17T22:09:05.786Z,13.41
2022-10-17T22:11:33.957Z,13.50
2022-10-17T22:14:05.041Z,13.26
2022-10-17T22:16:31.359Z,13.26
2022-10-17T22:19:03.106Z,13.03
2022-10-17T22:21:33.384Z,13.06
2022-10-17T22:24:00.863Z,13.16
2022-10-17T22:26:28.100Z,13.21
2022-10-17T22:28:54.724Z,13.28
2022-10-17T22:31:21.360Z,13.33
2022-10-17T22:33:47.675Z,13.32
2022-10-17T22:36:14.251Z,13.29
2022-10-17T22:38:40.594Z,12.84
2022-10-17T22:41:07.362Z,12.89
2022-10-17T22:43:33.760Z,13.11
2022-10-17T22:46:01.581Z,13.08
2022-10-17T22:48:30.317Z,13.12
2022-10-17T22:50:57.416Z,13.06
2022-10-17T22:53:25.721Z,13.15
2022-10-17T22:56:02.806Z,13.18
2022-10-17T22:58:30.445Z,12.74
2022-10-17T23:00:57.184Z,12.90
2022-10-17T23:03:24.130Z,13.00
2022-10-17T23:05:50.899Z,12.98
2022-10-17T23:08:18.539Z,13.03
2022-10-17T23:10:45.268Z,12.81
2022-10-17T23:13:11.908Z,12.54
2022-10-17T23:15:38.278Z,12.81
2022-10-17T23:18:04.839Z,12.84
2022-10-17T23:20:33.367Z,12.93
2022-10-17T23:22:59.920Z,12.91
2022-10-17T23:25:26.808Z,12.79
2022-10-17T23:27:53.227Z,12.63
2022-10-17T23:30:19.932Z,12.36
2022-10-17T23:32:46.556Z,12.38
2022-10-17T23:35:12.874Z,12.16
2022-10-17T23:37:39.179Z,12.17
2022-10-17T23:40:06.014Z,12.36
2022-10-17T23:42:32.411Z,12.44
2022-10-17T23:44:58.718Z,12.26
2022-10-17T23:47:25.029Z,12.58
2022-10-17T23:49:51.467Z,12.67
2022-10-17T23:52:17.825Z,12.46
2022-10-17T23:54:44.238Z,12.23
2022-10-17T23:57:10.589Z,12.23
2022-10-17T23:59:36.948Z,12.15
